Time;durP1;ratioP1;P1;durP2;ratioP2;P2;SDS_P1;SDS_P2;PMS_P1;PMS_P2;Temp;Humidity;BMP_temperature;BMP_pressure;BME280_temperature;BME280_humidity;BME280_pressure;Samples;Min_cycle;Max_cycle;Signal;HPM_P1;HPM_P2
2022/12/07 00:01:12;;;;;;;52.20;23.23;;;;;;;6.64;74.68;95222.28;5046171;28;20032;-81
2022/12/07 00:03:39;;;;;;;51.97;22.38;;;;;;;6.55;74.52;95215.88;5047341;28;20055;-82
2022/12/07 00:06:06;;;;;;;56.17;23.88;;;;;;;6.65;74.74;95226.50;5065480;28;20100;-82
2022/12/07 00:08:34;;;;;;;53.90;24.90;;;;;;;5.72;74.41;95074.81;5077486;28;20428;-82
2022/12/07 00:11:11;;;;;;;59.83;24.88;;;;;;;6.07;74.17;95133.16;5050677;28;20642;-83
2022/12/07 00:13:38;;;;;;;56.83;22.90;;;;;;;5.91;74.61;95110.31;5057426;28;20101;-81
2022/12/07 00:16:07;;;;;;;64.55;23.27;;;;;;;6.13;74.55;95134.81;5081337;28;20123;-82
2022/12/07 00:18:33;;;;;;;57.40;21.55;;;;;;;6.46;74.43;95193.63;5072029;28;20515;-83
2022/12/07 00:21:04;;;;;;;45.75;21.67;;;;;;;5.87;74.50;95093.41;5060763;28;20143;-83
2022/12/07 00:23:30;;;;;;;47.92;20.95;;;;;;;6.62;74.43;95215.69;5066669;28;20101;-82
2022/12/07 00:25:56;;;;;;;53.92;20.75;;;;;;;6.07;74.47;95129.72;5061191;28;20849;-82
2022/12/07 00:28:23;;;;;;;46.85;21.90;;;;;;;5.86;74.69;95099.72;5065579;28;20036;-82
2022/12/07 00:30:50;;;;;;;51.17;22.70;;;;;;;6.39;74.45;95196.47;5080748;28;20032;-83
2022/12/07 00:33:15;;;;;;;49.35;21.38;;;;;;;6.10;74.54;95145.03;5049786;28;20054;-82
2022/12/07 00:35:40;;;;;;;46.38;21.45;;;;;;;6.57;74.81;95217.19;5050150;28;20044;-82
2022/12/07 00:38:07;;;;;;;54.42;20.38;;;;;;;6.57;74.69;95219.84;5047526;28;20486;-83
2022/12/07 00:40:33;;;;;;;45.30;21.73;;;;;;;6.58;74.72;95220.63;5062069;28;20028;-83
2022/12/07 00:42:58;;;;;;;44.85;21.05;;;;;;;5.93;74.24;95115.34;5071786;28;20031;-83
2022/12/07 00:45:25;;;;;;;46.75;20.55;;;;;;;5.72;74.28;95077.44;5073803;28;20491;-82
2022/12/07 00:47:50;;;;;;;50.92;21.58;;;;;;;5.95;74.53;95124.56;5067368;28;20085;-82
2022/12/07 00:50:16;;;;;;;51.97;19.77;;;;;;;6.05;74.43;95129.16;5045764;28;20033;-82
2022/12/07 00:52:42;;;;;;;44.53;20.05;;;;;;;6.11;74.73;95126.34;5059489;28;20055;-83
2022/12/07 00:55:08;;;;;;;48.13;20.55;;;;;;;6.24;74.77;95156.00;5065529;28;20514;-83
2022/12/07 00:57:33;;;;;;;41.58;20.33;;;;;;;6.21;74.12;95141.47;5060276;28;20047;-82
2022/12/07 01:00:00;;;;;;;46.88;21.13;;;;;;;5.69;74.32;95051.63;5049790;28;20047;-82
2022/12/07 01:02:25;;;;;;;46.80;19.67;;;;;;;6.35;74.52;95147.13;5060848;28;20812;-81
2022/12/07 01:04:51;;;;;;;49.63;21.27;;;;;;;6.68;74.41;95201.50;5083253;28;20060;-81
2022/12/07 01:07:16;;;;;;;47.65;20.73;;;;;;;5.49;74.28;95015.34;5081632;28;20087;-82
2022/12/07 01:09:41;;;;;;;49.80;21.20;;;;;;;6.34;74.38;95156.88;5047363;28;20039;-83
2022/12/07 01:12:07;;;;;;;45.30;19.50;;;;;;;6.64;74.44;95200.44;5059886;28;20217;-80
2022/12/07 01:14:34;;;;;;;48.60;20.52;;;;;;;5.95;74.42;95094.84;5064959;28;20126;-81
2022/12/07 01:17:01;;;;;;;49.97;21.00;;;;;;;5.48;74.17;95011.13;5059027;28;20024;-82
2022/12/07 01:19:30;;;;;;;42.53;19.98;;;;;;;6.67;74.63;95200.72;5072864;28;20044;-82
2022/12/07 01:21:55;;;;;;;45.30;20.38;;;;;;;6.57;74.28;95184.78;5078784;28;20119;-81
2022/12/07 01:24:20;;;;;;;56.35;21.65;;;;;;;6.16;74.69;95107.19;5057427;28;20055;-82
2022/12/07 01:26:49;;;;;;;50.63;21.42;;;;;;;6.19;74.16;95106.69;5057192;28;20197;-82
2022/12/07 01:29:14;;;;;;;48.13;21.55;;;;;;;6.64;74.15;95185.38;5060134;28;20674;-82
2022/12/07 01:31:40;;;;;;;54.53;22.23;;;;;;;5.64;74.68;95027.88;5085306;28;20047;-82
2022/12/07 01:34:05;;;;;;;49.65;21.42;;;;;;;6.52;74.66;95161.03;5053849;28;20056;-81
2022/12/07 01:36:34;;;;;;;52.97;20.58;;;;;;;5.85;74.51;95053.38;5068032;28;20584;-82
2022/12/07 01:39:03;;;;;;;45.92;21.00;;;;;;;5.93;74.71;95065.34;5065265;28;20062;-83
2022/12/07 01:41:32;;;;;;;49.10;21.42;;;;;;;6.09;74.63;95090.78;5087454;28;20482;-83
2022/12/07 01:44:20;;;;;;;45.47;20.10;;;;;;;6.41;74.59;95143.50;5068668;28;20116;-81
2022/12/07 01:47:04;;;;;;;47.08;20.63;;;;;;;6.61;74.76;95188.53;5063556;28;20036;-81
2022/12/07 01:49:56;;;;;;;46.72;21.08;;;;;;;6.20;74.35;95122.25;5076861;28;20043;-82
2022/12/07 01:52:32;;;;;;;49.28;20.75;;;;;;;5.90;74.82;95077.16;5050935;28;20048;-82
2022/12/07 01:55:03;;;;;;;50.10;22.23;;;;;;;5.84;74.53;95067.59;5065254;28;20031;-82
2022/12/07 01:57:33;;;;;;;50.20;21.17;;;;;;;6.25;74.88;95125.97;5069479;28;20506;-82
2022/12/07 02:00:00;;;;;;;50.30;21.15;;;;;;;6.58;75.03;95170.56;5067225;28;20044;-82
2022/12/07 02:02:33;;;;;;;46.58;20.92;;;;;;;6.55;74.58;95163.97;5066940;28;20070;-83
2022/12/07 02:05:01;;;;;;;51.95;20.30;;;;;;;6.52;74.69;95166.28;5083475;28;20561;-82
2022/12/07 02:07:28;;;;;;;50.63;21.63;;;;;;;5.68;75.19;95036.88;5065821;28;20119;-82
2022/12/07 02:09:54;;;;;;;45.60;20.65;;;;;;;6.17;75.00;95108.78;5051004;28;20044;-83
2022/12/07 02:12:21;;;;;;;47.75;20.77;;;;;;;5.94;74.85;95074.84;5051319;28;20093;-82
2022/12/07 02:14:48;;;;;;;41.85;20.55;;;;;;;6.27;75.10;95129.94;5066658;28;20734;-82
2022/12/07 02:17:13;;;;;;;49.03;20.90;;;;;;;6.55;74.73;95171.88;5057035;28;20039;-82
2022/12/07 02:20:00;;;;;;;43.95;21.60;;;;;;;6.50;74.91;95173.66;5082427;28;20112;-83
2022/12/07 02:22:47;;;;;;;48.58;21.40;;;;;;;6.51;74.84;95165.50;5068063;28;20035;-83
2022/12/07 02:25:21;;;;;;;49.38;21.67;;;;;;;6.44;75.21;95172.00;5053252;28;20565;-83
2022/12/07 02:27:56;;;;;;;52.38;21.27;;;;;;;6.30;75.13;95147.09;5048943;28;20611;-81
2022/12/07 02:30:23;;;;;;;43.58;21.30;;;;;;;6.48;75.08;95158.13;5059670;28;20028;-82
2022/12/07 02:32:51;;;;;;;43.25;20.27;;;;;;;6.48;75.45;95154.69;5090557;28;20028;-82
2022/12/07 02:35:51;;;;;;;53.13;21.50;;;;;;;6.51;75.07;95151.53;5083454;28;20178;-82
2022/12/07 02:38:25;;;;;;;41.05;20.05;;;;;;;6.50;75.01;95144.66;5089065;28;20065;-82
2022/12/07 02:41:00;;;;;;;46.35;20.15;;;;;;;5.36;75.03;94979.69;5090739;28;20047;-82
2022/12/07 02:43:40;;;;;;;44.08;20.85;;;;;;;5.86;75.23;95059.44;5074954;28;20228;-82
2022/12/07 02:46:10;;;;;;;50.33;22.65;;;;;;;6.47;75.39;95164.41;5088421;28;20028;-81
2022/12/07 02:48:38;;;;;;;45.85;21.00;;;;;;;5.80;75.80;95083.06;5066133;28;20028;-81
2022/12/07 02:51:04;;;;;;;48.10;21.73;;;;;;;5.48;75.16;95010.34;5076545;28;20521;-81
2022/12/07 02:53:35;;;;;;;49.25;21.50;;;;;;;6.38;75.51;95146.66;5065100;28;20024;-83
2022/12/07 02:56:23;;;;;;;45.50;20.63;;;;;;;5.91;74.98;95077.94;5057546;28;20040;-82
2022/12/07 02:59:26;;;;;;;45.10;21.15;;;;;;;6.38;74.88;95151.94;5055796;28;20707;-83
2022/12/07 03:02:10;;;;;;;52.78;21.25;;;;;;;6.36;74.79;95148.75;5049993;28;20042;-82
2022/12/07 03:04:52;;;;;;;45.22;21.30;;;;;;;5.53;75.03;95019.06;5066518;28;20048;-83
2022/12/07 03:07:39;;;;;;;50.50;22.20;;;;;;;6.31;75.29;95141.59;5055158;28;20075;-83
2022/12/07 03:10:07;;;;;;;47.00;21.77;;;;;;;6.30;75.07;95137.34;5065007;28;20052;-82
2022/12/07 03:12:59;;;;;;;49.75;21.63;;;;;;;5.28;75.18;94992.47;5060279;28;20043;-82
2022/12/07 03:15:34;;;;;;;47.42;22.20;;;;;;;5.64;75.44;95044.47;5046065;28;20055;-81
2022/12/07 03:18:02;;;;;;;54.38;20.98;;;;;;;5.92;75.38;95100.59;5047882;28;20123;-82
2022/12/07 03:20:29;;;;;;;55.30;22.67;;;;;;;6.04;75.27;95099.41;5062717;28;20427;-81
2022/12/07 03:22:57;;;;;;;46.85;22.17;;;;;;;5.85;75.26;95084.97;5053074;28;20474;-82
2022/12/07 03:25:23;;;;;;;48.50;23.30;;;;;;;5.82;75.55;95091.50;5055186;28;20566;-82
2022/12/07 03:27:59;;;;;;;50.58;21.63;;;;;;;6.14;75.27;95125.06;5057551;28;20043;-81
2022/12/07 03:30:32;;;;;;;49.50;21.98;;;;;;;6.11;75.86;95144.78;5062295;28;20526;-82
2022/12/07 03:33:11;;;;;;;56.17;22.70;;;;;;;5.72;75.34;95075.59;5063376;28;20054;-81
2022/12/07 03:35:44;;;;;;;51.35;20.83;;;;;;;5.80;75.28;95098.03;5041801;28;20047;-81
2022/12/07 03:38:29;;;;;;;50.55;22.15;;;;;;;6.06;75.89;95136.81;5059451;28;20043;-83
2022/12/07 03:41:03;;;;;;;61.63;23.45;;;;;;;5.03;75.42;95004.25;5063146;28;20041;-82
2022/12/07 03:43:30;;;;;;;55.25;23.50;;;;;;;5.36;75.78;95047.25;5052232;28;20068;-82
2022/12/07 03:45:55;;;;;;;54.22;23.38;;;;;;;6.03;76.07;95126.78;5051850;28;20060;-82
2022/12/07 03:48:25;;;;;;;51.95;23.33;;;;;;;5.81;75.52;95095.16;5063403;28;20032;-80
2022/12/07 03:50:59;;;;;;;56.08;24.05;;;;;;;5.50;75.44;95045.84;5058180;28;20718;-81
2022/12/07 03:53:33;;;;;;;47.65;22.20;;;;;;;5.48;76.22;95073.47;5062322;28;20036;-83
2022/12/07 03:55:59;;;;;;;53.80;22.30;;;;;;;4.97;75.52;94981.56;5043908;28;20045;-82
2022/12/07 03:58:25;;;;;;;50.70;23.95;;;;;;;5.86;75.56;95118.13;5062328;28;20485;-81
2022/12/07 04:00:51;;;;;;;49.25;22.98;;;;;;;5.64;76.28;95083.13;5057367;28;20043;-81
2022/12/07 04:03:17;;;;;;;57.05;25.00;;;;;;;5.25;75.59;95012.16;5061879;28;20556;-82
2022/12/07 04:05:43;;;;;;;53.72;23.77;;;;;;;5.87;75.98;95114.47;5058186;28;20069;-82
2022/12/07 04:08:09;;;;;;;62.45;25.83;;;;;;;6.00;76.03;95129.91;5054988;28;20080;-81
2022/12/07 04:10:35;;;;;;;75.20;25.30;;;;;;;5.39;75.39;95025.75;5060797;28;20028;-81
2022/12/07 04:13:00;;;;;;;59.85;24.10;;;;;;;5.05;75.96;94977.72;5057811;28;20048;-82
2022/12/07 04:15:25;;;;;;;62.28;24.65;;;;;;;5.94;75.66;95135.38;5060749;28;20032;-82
2022/12/07 04:17:51;;;;;;;60.75;23.70;;;;;;;5.97;76.00;95133.03;5063285;28;20053;-81
2022/12/07 04:20:16;;;;;;;59.08;24.00;;;;;;;5.59;75.88;95075.97;5054332;28;20035;-83
2022/12/07 04:22:42;;;;;;;72.82;27.30;;;;;;;5.73;75.71;95079.81;5053160;28;20054;-81
2022/12/07 04:25:08;;;;;;;59.90;23.50;;;;;;;5.65;75.81;95074.97;5074579;28;20035;-82
2022/12/07 04:27:34;;;;;;;49.80;24.30;;;;;;;5.89;75.67;95125.56;5064853;28;20032;-83
2022/12/07 04:29:59;;;;;;;54.17;24.60;;;;;;;5.29;76.10;95047.44;5054631;28;20044;-82
2022/12/07 04:32:24;;;;;;;51.47;24.00;;;;;;;5.31;75.91;95055.88;5060892;28;20800;-81
2022/12/07 04:34:50;;;;;;;59.22;26.23;;;;;;;5.12;76.14;95022.22;5058762;28;20047;-83
2022/12/07 04:37:17;;;;;;;58.63;24.48;;;;;;;5.87;75.98;95132.91;5063684;28;20093;-81
2022/12/07 04:39:44;;;;;;;62.28;26.85;;;;;;;4.77;76.04;94951.59;5076679;28;20116;-81
2022/12/07 04:42:10;;;;;;;61.22;24.95;;;;;;;5.53;76.33;95073.50;5070740;28;20111;-83
2022/12/07 04:44:36;;;;;;;61.30;25.52;;;;;;;4.94;76.36;94984.69;5078090;28;20028;-82
2022/12/07 04:47:02;;;;;;;58.55;25.13;;;;;;;5.21;76.25;95036.53;5061314;28;20037;-81
2022/12/07 04:49:27;;;;;;;62.47;24.25;;;;;;;5.69;76.59;95115.56;5063886;28;20020;-82
2022/12/07 04:51:53;;;;;;;58.33;26.33;;;;;;;4.61;76.19;94948.75;5080239;28;20032;-82
2022/12/07 04:54:18;;;;;;;55.90;24.92;;;;;;;5.57;76.20;95109.59;5073039;28;20044;-82
2022/12/07 04:56:44;;;;;;;60.78;26.38;;;;;;;5.17;75.88;95035.44;5077618;28;20035;-82
2022/12/07 04:59:11;;;;;;;67.45;26.63;;;;;;;3.82;76.27;94823.97;5081238;28;20035;-83
2022/12/07 05:01:36;;;;;;;66.72;25.40;;;;;;;5.34;76.15;95080.91;5072343;28;20123;-82
2022/12/07 05:04:02;;;;;;;60.88;26.77;;;;;;;5.76;75.98;95133.78;5078907;28;20135;-82
2022/12/07 05:06:28;;;;;;;60.65;26.00;;;;;;;4.80;76.34;94990.53;5083914;28;20529;-83
2022/12/07 05:08:53;;;;;;;63.92;26.20;;;;;;;4.95;76.20;95017.81;5081822;28;20043;-83
2022/12/07 05:17:24;;;;;;;75.53;28.42;;;;;;;1.64;76.62;94519.22;5132171;22;20228;-82
2022/12/07 05:19:50;;;;;;;71.25;26.73;;;;;;;5.42;76.62;95091.78;5047740;28;20422;-82
2022/12/07 05:22:15;;;;;;;86.28;28.90;;;;;;;4.04;76.72;94873.91;5026438;28;20052;-84
2022/12/07 05:24:41;;;;;;;67.60;26.98;;;;;;;4.91;76.62;95034.28;5025137;28;20139;-82
2022/12/07 05:27:06;;;;;;;66.85;25.83;;;;;;;5.55;77.05;95127.47;5021262;28;20531;-81
2022/12/07 05:29:32;;;;;;;63.35;27.65;;;;;;;5.38;76.43;95114.38;5017543;28;20101;-83
2022/12/07 05:31:57;;;;;;;66.80;28.17;;;;;;;5.22;76.58;95091.53;5023360;28;20033;-82
2022/12/07 05:34:23;;;;;;;79.82;29.80;;;;;;;5.54;77.25;95133.78;5024126;28;20036;-82
2022/12/07 05:36:48;;;;;;;72.55;26.88;;;;;;;5.48;77.12;95131.31;5024332;28;20033;-83
2022/12/07 05:39:14;;;;;;;78.43;29.88;;;;;;;5.10;76.84;95069.00;5021612;28;20045;-81
2022/12/07 05:44:23;;;;;;;69.07;27.15;;;;;;;5.33;76.83;95095.09;5047044;28;20129;-83
2022/12/07 05:46:49;;;;;;;71.18;27.58;;;;;;;4.71;77.22;94991.97;5049468;28;20029;-81
2022/12/07 05:49:14;;;;;;;66.35;27.27;;;;;;;5.24;77.07;95081.56;5040792;28;20025;-82
2022/12/07 05:51:40;;;;;;;69.15;27.80;;;;;;;5.41;76.71;95090.22;5028262;28;20132;-82
2022/12/07 05:54:05;;;;;;;60.70;27.60;;;;;;;4.98;77.37;95042.81;5029467;28;20052;-83
2022/12/07 05:56:31;;;;;;;69.32;28.13;;;;;;;5.25;77.43;95071.84;5029873;28;20033;-82
2022/12/07 06:01:40;;;;;;;65.32;26.55;;;;;;;5.41;77.03;95090.22;5043773;28;20044;-82
2022/12/07 06:04:06;;;;;;;62.10;24.85;;;;;;;4.64;77.28;94977.19;5046698;28;20036;-81
2022/12/07 06:06:31;;;;;;;60.05;26.23;;;;;;;4.63;77.59;94970.34;5045382;28;20031;-86
2022/12/07 06:08:57;;;;;;;69.70;27.67;;;;;;;4.87;77.32;95004.28;5044847;28;20643;-81
2022/12/07 06:14:06;;;;;;;63.63;26.70;;;;;;;4.90;77.36;95033.50;5038781;28;20310;-84
2022/12/07 06:16:34;;;;;;;63.80;28.25;;;;;;;4.63;77.44;94972.97;5041325;28;20056;-81
2022/12/07 06:18:59;;;;;;;71.65;28.40;;;;;;;5.66;77.68;95131.03;5027809;28;20078;-82
2022/12/07 06:21:26;;;;;;;64.30;27.98;;;;;;;4.95;77.59;95009.13;5033912;28;20091;-84
2022/12/07 06:23:52;;;;;;;60.42;29.50;;;;;;;5.58;77.49;95129.59;5045134;28;20138;-83
2022/12/07 06:26:17;;;;;;;71.70;28.83;;;;;;;4.92;77.72;95023.53;5043375;28;20132;-83
2022/12/07 06:28:43;;;;;;;75.97;29.52;;;;;;;5.43;77.37;95093.38;5045194;28;20036;-83
2022/12/07 06:31:08;;;;;;;64.90;29.65;;;;;;;5.25;77.63;95083.16;5025029;28;20025;-82
2022/12/07 06:33:34;;;;;;;63.50;28.75;;;;;;;4.88;77.84;95014.53;5028281;28;20029;-82
2022/12/07 06:35:59;;;;;;;71.07;27.60;;;;;;;4.86;78.12;95015.84;5025854;28;20033;-82
2022/12/07 06:38:25;;;;;;;71.47;28.52;;;;;;;4.75;77.71;94985.19;5025245;28;20049;-83
2022/12/07 06:40:50;;;;;;;61.20;27.00;;;;;;;4.77;77.72;94986.53;5027983;28;20033;-83
2022/12/07 06:43:16;;;;;;;68.40;30.10;;;;;;;4.69;77.99;94965.94;5042832;28;20357;-84
2022/12/07 06:45:42;;;;;;;86.40;31.55;;;;;;;5.32;77.85;95077.72;5023225;28;20037;-82
2022/12/07 06:48:07;;;;;;;64.03;28.05;;;;;;;5.07;78.30;95041.34;5026925;28;20030;-82
2022/12/07 06:50:33;;;;;;;77.57;29.20;;;;;;;5.83;78.18;95152.84;5042565;28;20039;-82
2022/12/07 06:52:58;;;;;;;76.95;32.85;;;;;;;4.69;77.61;94965.94;5042504;28;20032;-84
2022/12/07 06:55:24;;;;;;;107.35;36.03;;;;;;;5.30;77.38;95058.75;5044659;28;20071;-83
2022/12/07 06:57:49;;;;;;;67.07;28.58;;;;;;;3.93;77.42;94827.53;5027105;28;20094;-84
2022/12/07 07:00:15;;;;;;;84.85;31.95;;;;;;;5.98;77.90;95158.31;5026905;28;20032;-84
2022/12/07 07:02:40;;;;;;;86.40;28.98;;;;;;;5.32;77.64;95068.00;5024802;28;20036;-85
2022/12/07 07:05:06;;;;;;;65.40;30.50;;;;;;;5.66;77.57;95112.59;5023211;28;20076;-85
2022/12/07 07:07:31;;;;;;;82.20;31.65;;;;;;;5.91;77.39;95134.00;5021262;28;20410;-84
2022/12/07 07:09:57;;;;;;;70.63;30.08;;;;;;;4.95;77.51;94988.13;5022911;28;20029;-83
2022/12/07 07:12:22;;;;;;;75.78;30.75;;;;;;;3.95;77.00;94799.25;5020692;28;20040;-84
2022/12/07 07:14:48;;;;;;;78.13;29.25;;;;;;;4.31;76.69;94850.38;5008704;28;20413;-83
2022/12/07 07:17:13;;;;;;;70.45;30.83;;;;;;;5.43;76.97;95037.34;5004971;28;20042;-82
2022/12/07 07:19:39;;;;;;;70.63;28.27;;;;;;;6.08;77.16;95137.38;4998151;28;20045;-84
2022/12/07 07:22:04;;;;;;;75.65;31.48;;;;;;;5.86;77.21;95117.34;5001214;28;20036;-83
2022/12/07 07:24:30;;;;;;;74.15;32.45;;;;;;;6.04;77.40;95141.53;5006842;28;20116;-82
2022/12/07 07:26:55;;;;;;;80.97;30.98;;;;;;;5.73;77.49;95097.44;5003304;28;20033;-83
2022/12/07 07:29:21;;;;;;;73.07;30.48;;;;;;;5.94;77.49;95136.16;5003404;28;20033;-82
2022/12/07 07:31:46;;;;;;;96.82;31.58;;;;;;;6.07;76.57;95116.56;5009178;28;20506;-83
2022/12/07 07:34:12;;;;;;;76.32;30.33;;;;;;;5.89;76.40;95093.97;5003095;28;20171;-82
2022/12/07 07:36:39;;;;;;;78.75;33.58;;;;;;;5.72;77.24;95091.38;5002660;28;20034;-84
2022/12/07 07:39:05;;;;;;;84.10;35.67;;;;;;;5.96;76.71;95093.78;4999383;28;20040;-83
2022/12/07 07:41:31;;;;;;;80.93;37.50;;;;;;;5.26;76.51;94995.34;4998303;28;20523;-83
2022/12/07 07:43:56;;;;;;;88.25;37.88;;;;;;;5.50;76.26;95034.53;5002931;28;20040;-82
2022/12/07 07:46:22;;;;;;;77.13;34.15;;;;;;;5.66;75.98;95041.56;5007202;28;20307;-82
2022/12/07 07:48:47;;;;;;;98.20;39.88;;;;;;;6.30;76.01;95160.25;5005793;28;20033;-82
2022/12/07 07:51:14;;;;;;;106.65;43.28;;;;;;;6.25;76.63;95168.91;5002629;28;20030;-84
2022/12/07 07:53:48;;;;;;;80.65;34.85;;;;;;;2.20;76.30;94520.19;4996942;28;20058;-84
2022/12/07 07:56:14;;;;;;;94.63;38.35;;;;;;;4.71;76.22;94902.66;4990732;28;20033;-84
2022/12/07 07:58:39;;;;;;;92.13;41.13;;;;;;;4.33;75.67;94827.31;4996405;28;20048;-84
2022/12/07 08:01:06;;;;;;;87.88;39.03;;;;;;;6.54;75.99;95157.13;4994303;28;20034;-86
2022/12/07 08:03:39;;;;;;;94.05;42.10;;;;;;;4.12;75.20;94800.78;5002538;28;20113;-86
2022/12/07 08:06:05;;;;;;;94.10;40.15;;;;;;;4.39;75.09;94815.84;4994074;28;20045;-85
2022/12/07 08:08:31;;;;;;;94.25;41.13;;;;;;;6.62;75.24;95134.00;4978095;28;20113;-85
2022/12/07 08:11:00;;;;;;;84.00;36.28;;;;;;;6.02;74.78;95030.44;4993986;28;20144;-86
2022/12/07 08:13:25;;;;;;;88.03;37.92;;;;;;;5.66;74.57;94973.97;4993862;28;20026;-85
2022/12/07 08:15:51;;;;;;;86.85;37.95;;;;;;;6.55;74.25;95111.28;4997025;28;20204;-85
2022/12/07 08:18:16;;;;;;;84.53;37.50;;;;;;;6.32;74.48;95066.81;4999023;28;20033;-85
2022/12/07 08:20:42;;;;;;;99.47;36.90;;;;;;;6.85;74.42;95157.41;4996823;28;20195;-83
2022/12/07 08:23:10;;;;;;;87.50;37.65;;;;;;;6.08;74.36;95036.53;4998685;28;20034;-84
2022/12/07 08:25:35;;;;;;;78.13;36.72;;;;;;;6.49;74.25;95106.19;4997061;28;20030;-86
2022/12/07 08:28:01;;;;;;;85.82;37.80;;;;;;;6.19;74.50;95069.81;4994975;28;20531;-85
2022/12/07 08:30:28;;;;;;;75.93;36.85;;;;;;;6.77;74.37;95147.31;4997317;28;20100;-84
2022/12/07 08:32:54;;;;;;;79.57;36.90;;;;;;;6.37;73.83;95066.84;4997659;28;20148;-85
2022/12/07 08:35:19;;;;;;;91.75;38.92;;;;;;;6.74;73.88;95113.53;4998655;28;20220;-84
2022/12/07 08:37:45;;;;;;;81.40;36.28;;;;;;;6.41;73.88;95062.66;4999809;28;20030;-85
2022/12/07 08:40:15;;;;;;;83.55;37.45;;;;;;;7.08;73.85;95154.44;4994130;28;20049;-84
2022/12/07 08:42:42;;;;;;;88.75;38.97;;;;;;;4.63;73.50;94772.53;4999910;28;20045;-84
2022/12/07 08:45:10;;;;;;;93.25;38.40;;;;;;;7.07;73.36;95147.56;4997236;28;20030;-84
2022/12/07 08:47:39;;;;;;;78.63;37.25;;;;;;;6.21;73.34;94991.38;4995690;28;20092;-84
2022/12/07 08:50:08;;;;;;;76.45;35.58;;;;;;;5.56;73.16;94892.31;4998776;28;20022;-84
2022/12/07 08:52:35;;;;;;;85.55;35.72;;;;;;;6.77;73.00;95076.16;4996853;28;20075;-84
2022/12/07 08:55:05;;;;;;;91.47;37.22;;;;;;;6.45;73.06;95034.78;5005126;28;20037;-91
2022/12/07 08:57:33;;;;;;;87.20;37.63;;;;;;;6.19;73.10;94983.72;4997490;28;20500;-83
2022/12/07 08:59:58;;;;;;;95.88;39.13;;;;;;;6.81;73.33;95075.38;4994585;28;20317;-85
2022/12/07 09:02:24;;;;;;;90.47;36.05;;;;;;;6.10;72.89;94993.09;4995779;28;20041;-85
2022/12/07 09:04:49;;;;;;;82.00;36.47;;;;;;;7.23;73.02;95133.44;4996490;28;20041;-84
2022/12/07 09:07:15;;;;;;;88.93;36.72;;;;;;;6.84;73.01;95068.81;4997746;28;20034;-84
2022/12/07 09:09:40;;;;;;;81.90;33.80;;;;;;;6.65;72.75;95028.88;4998318;28;20033;-84
2022/12/07 09:12:06;;;;;;;77.18;34.92;;;;;;;7.31;72.60;95125.06;4996260;28;20029;-84
2022/12/07 09:14:31;;;;;;;80.00;35.50;;;;;;;7.03;72.70;95074.47;4993507;28;20026;-86
2022/12/07 09:17:06;;;;;;;71.50;34.60;;;;;;;6.64;72.25;94993.00;4995003;28;20582;-83
2022/12/07 09:19:31;;;;;;;87.22;35.15;;;;;;;7.15;72.20;95061.91;4979779;28;20026;-84
2022/12/07 09:21:57;;;;;;;81.13;37.50;;;;;;;7.02;72.14;95028.84;4990492;28;20034;-85
2022/12/07 09:24:22;;;;;;;84.38;37.58;;;;;;;7.04;72.19;95031.25;4991765;28;20056;-84
2022/12/07 09:26:48;;;;;;;71.25;37.13;;;;;;;7.07;72.32;95028.09;4993490;28;20034;-84
2022/12/07 09:29:13;;;;;;;92.75;40.70;;;;;;;7.12;72.65;95028.94;4995446;28;20136;-84
2022/12/07 09:31:38;;;;;;;96.40;38.63;;;;;;;7.39;71.74;95073.66;4995474;28;20044;-85
2022/12/07 09:34:05;;;;;;;95.32;37.47;;;;;;;7.25;72.02;95056.69;4994562;28;20029;-85
2022/12/07 09:36:31;;;;;;;88.32;37.97;;;;;;;6.56;72.26;94933.69;4999068;28;20038;-85
2022/12/07 09:38:57;;;;;;;92.80;38.45;;;;;;;7.79;72.03;95085.44;4995401;28;20045;-85
2022/12/07 09:41:25;;;;;;;87.47;37.47;;;;;;;7.19;71.71;94975.94;4999076;28;20502;-85
2022/12/07 09:43:52;;;;;;;87.60;36.58;;;;;;;7.44;71.86;95002.44;4999268;28;20040;-85
2022/12/07 09:46:19;;;;;;;98.10;39.80;;;;;;;7.58;71.33;95029.16;4999612;28;20037;-87
2022/12/07 09:48:46;;;;;;;86.38;39.83;;;;;;;7.36;71.56;94985.28;4998143;28;20419;-88
2022/12/07 09:51:23;;;;;;;110.05;44.38;;;;;;;7.87;70.84;95058.56;5006142;28;20416;-85
2022/12/07 09:53:50;;;;;;;102.00;44.67;;;;;;;6.94;70.90;94893.03;4993294;28;20236;-85
2022/12/07 09:56:17;;;;;;;97.57;44.00;;;;;;;7.99;70.81;95077.63;5000036;28;20060;-84
2022/12/07 09:58:43;;;;;;;92.25;42.38;;;;;;;8.02;70.66;95075.25;5004378;28;20038;-82
2022/12/07 10:01:09;;;;;;;95.50;42.90;;;;;;;8.11;70.60;95067.63;4996849;28;20061;-84
2022/12/07 10:03:38;;;;;;;97.10;41.30;;;;;;;7.61;70.53;94973.22;4996160;28;20403;-83
2022/12/07 10:06:05;;;;;;;84.97;40.63;;;;;;;6.98;70.36;94875.66;4999025;28;20037;-84
2022/12/07 10:08:31;;;;;;;83.47;39.55;;;;;;;7.51;70.59;94962.63;4995241;28;20510;-84
2022/12/07 10:11:03;;;;;;;92.88;39.70;;;;;;;8.43;70.16;95064.81;4995852;28;20026;-85
2022/12/07 10:13:34;;;;;;;76.95;37.08;;;;;;;8.32;69.61;95061.34;4995880;28;20419;-84
2022/12/07 10:16:00;;;;;;;;;;;;;;;8.46;69.36;95059.00;5008983;28;20435;-86
2022/12/07 10:18:41;;;;;;;90.10;36.17;;;;;;;8.18;69.46;95007.41;5021758;28;19924;-85
2022/12/07 10:21:12;;;;;;;87.65;35.35;;;;;;;8.51;69.52;95051.88;5024967;28;20033;-84
2022/12/07 10:23:42;;;;;;;;;;;;;;;8.61;69.00;95045.81;5022829;28;20826;-84
2022/12/07 10:26:46;;;;;;;75.78;34.55;;;;;;;8.49;69.01;94979.19;5008790;28;19924;-84
2022/12/07 10:29:17;;;;;;;73.55;34.78;;;;;;;8.98;68.29;95034.16;4970348;28;20041;-84
2022/12/07 10:31:44;;;;;;;73.82;34.90;;;;;;;8.83;68.41;94967.00;5022869;28;20033;-84
2022/12/07 10:34:29;;;;;;;71.88;35.13;;;;;;;9.49;67.83;95018.94;5024741;28;20035;-85
2022/12/07 10:37:19;;;;;;;70.57;31.73;;;;;;;9.66;67.17;95019.44;5035632;28;20054;-84
2022/12/07 10:39:55;;;;;;;69.18;30.42;;;;;;;9.83;66.18;95014.59;5026236;28;20033;-86
2022/12/07 10:42:23;;;;;;;63.15;27.67;;;;;;;9.88;65.59;95014.56;5037208;28;20114;-85
2022/12/07 10:45:07;;;;;;;62.10;28.38;;;;;;;9.89;64.85;95007.41;5041678;28;20503;-85
2022/12/07 10:48:29;;;;;;;66.05;29.25;;;;;;;9.85;65.32;95015.09;5026287;28;20112;-85
2022/12/07 10:51:19;;;;;;;68.57;30.58;;;;;;;9.81;65.21;95010.63;4957027;28;20568;-85
2022/12/07 10:54:01;;;;;;;53.15;25.88;;;;;;;9.82;65.34;95006.91;4960645;28;20483;-83
2022/12/07 10:56:52;;;;;;;59.65;26.13;;;;;;;9.23;66.11;94952.88;5012805;28;20045;-85
2022/12/07 10:59:35;;;;;;;61.33;25.92;;;;;;;8.92;65.84;94890.56;5038798;28;20038;-85
2022/12/07 11:02:10;;;;;;;56.65;24.60;;;;;;;9.65;65.61;94989.50;5022702;28;20552;-84
2022/12/07 11:05:12;;;;;;;52.55;26.42;;;;;;;9.78;65.90;94982.81;5037928;28;20028;-84
2022/12/07 11:07:59;;;;;;;61.70;28.00;;;;;;;8.50;65.57;94786.00;5019717;28;20509;-85
2022/12/07 11:10:47;;;;;;;60.75;27.23;;;;;;;9.18;65.35;94880.66;5022374;28;20040;-84
2022/12/07 11:13:30;;;;;;;56.83;24.70;;;;;;;9.21;65.18;94888.84;5023799;28;20392;-86
2022/12/07 11:16:49;;;;;;;;;;;;;;;;;;;;;
2022/12/07 11:19:53;;;;;;;53.85;25.60;;;;;;;9.73;65.69;94976.75;5029715;28;20032;-85
2022/12/07 11:22:31;;;;;;;55.85;26.90;;;;;;;9.83;65.02;94972.22;5036935;28;20025;-86
2022/12/07 11:25:13;;;;;;;57.63;23.85;;;;;;;9.57;65.53;94960.94;5039935;28;20032;-85
2022/12/07 11:27:57;;;;;;;54.10;24.30;;;;;;;9.70;66.50;94967.50;5019647;28;20064;-84
2022/12/07 11:30:36;;;;;;;54.28;24.17;;;;;;;9.59;65.73;94928.91;5020622;28;20127;-86
2022/12/07 11:33:05;;;;;;;50.08;24.20;;;;;;;9.75;66.25;94956.09;5021553;28;20032;-85
2022/12/07 11:35:41;;;;;;;46.10;23.83;;;;;;;9.85;65.72;94945.44;5042215;28;20475;-84
2022/12/07 11:38:20;;;;;;;57.40;21.92;;;;;;;9.82;65.75;94938.84;5019606;28;20697;-84
2022/12/07 11:40:49;;;;;;;59.67;24.05;;;;;;;10.03;65.33;94944.78;5022414;28;20129;-85
2022/12/07 11:43:23;;;;;;;52.90;23.67;;;;;;;9.64;65.18;94860.81;5022952;28;20558;-85
2022/12/07 11:46:01;;;;;;;54.53;24.15;;;;;;;9.85;65.86;94890.59;5014204;28;20136;-84
2022/12/07 11:48:36;;;;;;;46.08;24.48;;;;;;;10.08;64.84;94945.53;5037169;28;20558;-84
2022/12/07 11:51:04;;;;;;;54.38;21.73;;;;;;;9.99;64.63;94931.28;5016859;28;20029;-83
2022/12/07 11:53:40;;;;;;;52.22;21.88;;;;;;;9.83;64.77;94865.47;5037133;28;20036;-83